createdAt,value
2018-09-04T00:00:26.820Z,18.80
2018-09-04T00:02:55.173Z,18.80
2018-09-04T00:05:23.505Z,18.80
2018-09-04T00:07:51.822Z,18.70
2018-09-04T00:10:20.177Z,18.70
2018-09-04T00:12:48.530Z,18.70
2018-09-04T00:15:16.884Z,18.70
2018-09-04T00:17:45.242Z,18.70
2018-09-04T00:20:13.627Z,18.70
2018-09-04T00:22:42.034Z,18.70
2018-09-04T00:25:10.340Z,18.60
2018-09-04T00:27:38.711Z,18.50
2018-09-04T00:30:07.296Z,18.50
2018-09-04T00:32:35.680Z,18.40
2018-09-04T00:35:04.043Z,18.40
2018-09-04T00:37:32.349Z,18.30
2018-09-04T00:40:01.093Z,18.30
2018-09-04T00:42:29.454Z,18.30
2018-09-04T00:44:57.854Z,18.30
2018-09-04T00:47:26.229Z,18.30
2018-09-04T00:49:54.615Z,18.30
2018-09-04T00:52:22.972Z,18.20
2018-09-04T00:54:51.286Z,18.20
2018-09-04T00:57:19.656Z,18.20
2018-09-04T00:59:47.958Z,18.20
2018-09-04T01:02:16.354Z,18.20
2018-09-04T01:04:46.024Z,18.10
2018-09-04T01:07:14.804Z,18.00
2018-09-04T01:09:43.176Z,17.90
2018-09-04T01:12:11.554Z,17.90
2018-09-04T01:14:40.023Z,17.90
2018-09-04T01:17:08.408Z,17.80
2018-09-04T01:19:36.734Z,17.80
2018-09-04T01:22:05.500Z,17.80
2018-09-04T01:24:33.971Z,17.80
2018-09-04T01:27:02.332Z,17.70
2018-09-04T01:29:30.672Z,17.70
2018-09-04T01:31:58.994Z,17.70
2018-09-04T01:34:27.325Z,17.60
2018-09-04T01:36:55.704Z,17.60
2018-09-04T01:39:24.034Z,17.50
2018-09-04T01:41:52.404Z,17.50
2018-09-04T01:44:20.856Z,17.40
2018-09-04T01:46:49.167Z,17.40
2018-09-04T01:49:17.514Z,17.40
2018-09-04T01:51:45.848Z,17.30
2018-09-04T01:54:14.178Z,17.30
2018-09-04T01:56:42.565Z,17.30
2018-09-04T01:59:10.935Z,17.30
2018-09-04T02:01:39.415Z,17.40
2018-09-04T02:04:07.774Z,17.30
2018-09-04T02:06:36.140Z,17.30
2018-09-04T02:09:05.443Z,17.30
2018-09-04T02:11:33.796Z,17.30
2018-09-04T02:14:02.153Z,17.20
2018-09-04T02:16:30.500Z,17.20
2018-09-04T02:18:58.901Z,17.20
2018-09-04T02:21:27.300Z,17.10
2018-09-04T02:23:55.806Z,17.10
2018-09-04T02:26:24.152Z,17.10
2018-09-04T02:28:52.557Z,17.10
2018-09-04T02:31:20.909Z,17.00
2018-09-04T02:33:49.332Z,17.00
2018-09-04T02:36:17.653Z,17.00
2018-09-04T02:38:46.016Z,17.00
2018-09-04T02:41:14.513Z,17.00
2018-09-04T02:43:42.878Z,17.00
2018-09-04T02:46:11.250Z,17.00
2018-09-04T02:48:39.750Z,17.00
2018-09-04T02:51:08.100Z,17.00
2018-09-04T02:53:36.469Z,17.00
2018-09-04T02:56:04.844Z,17.00
2018-09-04T02:58:33.231Z,17.10
2018-09-04T03:01:01.571Z,17.10
2018-09-04T03:03:29.924Z,17.10
2018-09-04T03:05:58.264Z,17.10
2018-09-04T03:08:26.652Z,17.10
2018-09-04T03:10:55.104Z,17.10
2018-09-04T03:13:23.489Z,17.10
2018-09-04T03:15:51.817Z,17.10
2018-09-04T03:18:20.156Z,17.10
2018-09-04T03:20:48.505Z,17.10
2018-09-04T03:23:17.549Z,17.10
2018-09-04T03:25:45.915Z,17.00
2018-09-04T03:28:14.244Z,17.00
2018-09-04T03:30:42.651Z,17.00
2018-09-04T03:33:10.975Z,17.00
2018-09-04T03:35:39.295Z,17.00
2018-09-04T03:38:07.611Z,16.90
2018-09-04T03:40:36.040Z,16.90
2018-09-04T03:43:04.336Z,16.90
2018-09-04T03:45:32.667Z,16.90
2018-09-04T03:48:01.051Z,16.90
2018-09-04T03:50:29.371Z,16.90
2018-09-04T03:52:57.789Z,16.90
2018-09-04T03:55:26.156Z,16.90
2018-09-04T03:57:54.479Z,16.90
2018-09-04T04:00:22.837Z,16.90
2018-09-04T04:02:57.996Z,16.90
2018-09-04T04:05:26.386Z,16.90
2018-09-04T04:07:54.675Z,16.90
2018-09-04T04:10:23.132Z,16.90
2018-09-04T04:12:51.472Z,16.90
2018-09-04T04:15:20.600Z,16.90
2018-09-04T04:17:48.989Z,16.90
2018-09-04T04:20:17.315Z,16.80
2018-09-04T04:22:45.953Z,16.90
2018-09-04T04:25:14.433Z,16.90
2018-09-04T04:27:42.892Z,16.90
2018-09-04T04:30:11.352Z,16.80
2018-09-04T04:32:39.840Z,16.80
2018-09-04T04:35:08.289Z,16.90
2018-09-04T04:37:36.715Z,16.90
2018-09-04T04:40:06.185Z,16.90
2018-09-04T04:42:34.579Z,16.90
2018-09-04T04:45:02.970Z,16.80
2018-09-04T04:47:36.770Z,16.80
2018-09-04T04:50:05.239Z,16.80
2018-09-04T04:52:33.664Z,16.80
2018-09-04T04:55:02.054Z,16.80
2018-09-04T04:57:30.425Z,16.80
2018-09-04T04:59:58.784Z,16.80
2018-09-04T05:02:27.131Z,16.80
2018-09-04T05:04:55.520Z,16.80
2018-09-04T05:07:25.223Z,16.80
2018-09-04T05:09:53.581Z,16.80
2018-09-04T05:12:22.826Z,16.80
2018-09-04T05:14:51.370Z,16.80
2018-09-04T05:17:20.267Z,16.90
2018-09-04T05:19:55.189Z,16.90
2018-09-04T05:22:23.525Z,17.00
2018-09-04T05:24:51.853Z,17.00
2018-09-04T05:27:20.211Z,17.10
2018-09-04T05:29:48.567Z,17.20
2018-09-04T05:32:22.078Z,17.20
2018-09-04T05:34:50.381Z,17.20
2018-09-04T05:37:18.692Z,17.30
2018-09-04T05:39:47.041Z,17.30
2018-09-04T05:42:20.764Z,17.30
2018-09-04T05:44:49.117Z,17.40
2018-09-04T05:47:17.458Z,17.40
2018-09-04T05:49:45.821Z,17.40
2018-09-04T05:52:14.120Z,17.50
2018-09-04T05:54:42.437Z,17.50
2018-09-04T05:57:10.777Z,17.60
2018-09-04T05:59:39.119Z,17.60
2018-09-04T06:02:07.456Z,17.70
2018-09-04T06:04:35.752Z,17.80
2018-09-04T06:07:04.033Z,17.80
2018-09-04T06:09:33.650Z,17.90
2018-09-04T06:12:01.976Z,17.90
2018-09-04T06:14:30.312Z,18.10
2018-09-04T06:16:58.710Z,18.10
2018-09-04T06:19:27.067Z,18.20
2018-09-04T06:24:46.433Z,18.50
2018-09-04T06:27:14.784Z,18.60
2018-09-04T06:29:43.101Z,18.70
2018-09-04T06:32:11.524Z,18.80
2018-09-04T06:34:39.894Z,18.90
2018-09-04T06:37:08.245Z,19.00
2018-09-04T06:39:36.599Z,19.10
2018-09-04T06:42:05.051Z,19.10
2018-09-04T06:44:33.582Z,19.10
2018-09-04T06:47:01.906Z,19.20
2018-09-04T06:49:30.439Z,19.20
2018-09-04T06:52:05.945Z,19.20
2018-09-04T06:54:34.280Z,19.30
2018-09-04T06:57:02.633Z,19.30
2018-09-04T06:59:37.639Z,19.40
2018-09-04T07:02:06.093Z,19.50
2018-09-04T07:04:34.748Z,19.60
2018-09-04T07:07:03.312Z,20.10
2018-09-04T07:09:31.616Z,20.80
2018-09-04T07:12:00.107Z,21.40
2018-09-04T07:14:28.449Z,21.80
2018-09-04T07:16:56.861Z,22.30
2018-09-04T07:19:25.233Z,22.80
2018-09-04T07:21:53.672Z,23.30
2018-09-04T07:24:22.197Z,23.50
2018-09-04T07:26:50.412Z,23.50
2018-09-04T07:29:18.776Z,23.70
2018-09-04T07:31:47.169Z,23.90
2018-09-04T07:34:15.626Z,24.00
2018-09-04T07:36:44.032Z,24.20
2018-09-04T07:39:12.780Z,24.40
2018-09-04T07:41:41.303Z,24.60
2018-09-04T07:44:09.700Z,24.80
2018-09-04T07:46:38.300Z,24.80
2018-09-04T07:49:06.850Z,24.70
2018-09-04T07:51:35.149Z,24.60
2018-09-04T07:54:03.479Z,24.70
2018-09-04T07:56:31.823Z,24.70
2018-09-04T07:59:00.120Z,24.90
2018-09-04T08:01:28.547Z,24.90
2018-09-04T08:03:56.905Z,24.90
2018-09-04T08:06:25.235Z,24.80
2018-09-04T08:08:53.582Z,24.70
2018-09-04T08:11:21.976Z,24.70
2018-09-04T08:13:50.295Z,24.70
2018-09-04T08:16:18.716Z,24.60
2018-09-04T08:18:47.077Z,24.80
2018-09-04T08:21:15.431Z,25.10
2018-09-04T08:23:43.790Z,25.20
2018-09-04T08:26:13.404Z,25.60
2018-09-04T08:28:41.855Z,26.00
2018-09-04T08:31:10.184Z,26.40
2018-09-04T08:33:38.546Z,26.50
2018-09-04T08:36:06.922Z,26.70
2018-09-04T08:38:39.509Z,26.90
2018-09-04T08:41:07.894Z,27.30
2018-09-04T08:43:36.233Z,27.60
2018-09-04T08:46:04.599Z,27.80
2018-09-04T08:48:32.949Z,27.80
2018-09-04T08:51:01.276Z,28.10
2018-09-04T08:53:29.691Z,28.00
2018-09-04T08:55:58.701Z,27.90
2018-09-04T08:58:27.105Z,28.20
2018-09-04T09:00:55.441Z,28.60
2018-09-04T09:03:23.820Z,28.30
2018-09-04T09:05:52.461Z,28.50
2018-09-04T09:08:20.825Z,28.60
2018-09-04T09:10:49.106Z,29.00
2018-09-04T09:13:17.448Z,28.80
2018-09-04T09:15:45.805Z,28.80
2018-09-04T09:18:14.129Z,29.10
2018-09-04T09:20:42.413Z,29.10
2018-09-04T09:23:10.765Z,29.10
2018-09-04T09:25:39.115Z,29.50
2018-09-04T09:28:07.495Z,29.80
2018-09-04T09:30:35.860Z,30.10
2018-09-04T09:33:04.179Z,29.90
2018-09-04T09:35:32.649Z,29.90
2018-09-04T09:38:01.154Z,30.10
2018-09-04T09:40:29.501Z,29.90
2018-09-04T09:42:57.829Z,29.70
2018-09-04T09:45:26.911Z,29.40
2018-09-04T09:47:55.232Z,28.70
2018-09-04T09:50:23.552Z,28.90
2018-09-04T09:52:51.944Z,29.30
2018-09-04T09:55:20.241Z,29.80
2018-09-04T09:57:48.546Z,30.20
2018-09-04T10:00:22.092Z,30.60
2018-09-04T10:03:09.610Z,30.40
2018-09-04T10:05:38.016Z,30.30
2018-09-04T10:08:06.656Z,30.40
2018-09-04T10:10:34.836Z,30.70
2018-09-04T10:13:03.172Z,30.90
2018-09-04T10:15:31.576Z,31.10
2018-09-04T10:17:59.894Z,31.30
2018-09-04T10:20:28.314Z,31.50
2018-09-04T10:22:56.686Z,31.40
2018-09-04T10:25:25.027Z,31.60
2018-09-04T10:27:53.411Z,31.60
2018-09-04T10:30:21.799Z,31.30
2018-09-04T10:32:51.734Z,31.40
2018-09-04T10:35:20.925Z,31.50
2018-09-04T10:37:49.795Z,31.90
2018-09-04T10:40:23.570Z,31.90
2018-09-04T10:42:51.879Z,32.20
2018-09-04T10:45:25.497Z,32.30
2018-09-04T10:47:54.302Z,32.20
2018-09-04T10:50:22.847Z,32.40
2018-09-04T10:52:51.796Z,32.40
2018-09-04T10:55:20.196Z,32.40
2018-09-04T10:57:48.672Z,31.80
2018-09-04T11:00:17.369Z,32.10
2018-09-04T11:02:45.881Z,32.00
2018-09-04T11:05:14.360Z,31.90
2018-09-04T11:07:42.770Z,32.20
2018-09-04T11:10:11.179Z,32.60
2018-09-04T11:12:39.770Z,32.70
2018-09-04T11:15:08.211Z,33.10
2018-09-04T11:17:36.593Z,33.10
2018-09-04T11:20:04.988Z,32.80
2018-09-04T11:22:33.313Z,32.70
2018-09-04T11:25:01.649Z,32.60
2018-09-04T11:27:30.058Z,32.70
2018-09-04T11:29:58.383Z,32.90
2018-09-04T11:32:26.738Z,33.00
2018-09-04T11:34:55.180Z,33.30
2018-09-04T11:37:23.519Z,32.90
2018-09-04T11:39:52.090Z,33.10
2018-09-04T11:42:20.439Z,33.20
2018-09-04T11:44:49.909Z,33.40
2018-09-04T11:47:18.346Z,33.60
2018-09-04T11:49:46.720Z,33.70
2018-09-04T11:52:15.107Z,33.90
2018-09-04T11:54:43.388Z,33.90
2018-09-04T11:57:11.738Z,33.90
2018-09-04T11:59:41.547Z,34.10
2018-09-04T12:02:26.595Z,34.20
2018-09-04T12:04:54.978Z,34.40
2018-09-04T12:07:23.335Z,34.30
2018-09-04T12:09:51.777Z,34.40
2018-09-04T12:12:25.610Z,34.10
2018-09-04T12:14:53.998Z,34.20
2018-09-04T12:17:22.343Z,34.20
2018-09-04T12:21:02.099Z,34.30
2018-09-04T12:23:30.408Z,34.20
2018-09-04T12:26:00.874Z,34.50
2018-09-04T12:28:29.484Z,34.60
2018-09-04T12:30:58.397Z,34.80
2018-09-04T12:33:26.798Z,35.00
2018-09-04T12:35:55.178Z,35.00
2018-09-04T12:38:25.127Z,35.30
2018-09-04T12:40:53.484Z,35.20
2018-09-04T12:43:22.626Z,35.00
2018-09-04T12:45:56.490Z,35.30
2018-09-04T12:48:28.053Z,35.40
2018-09-04T12:50:57.554Z,35.40
2018-09-04T12:53:26.761Z,35.30
2018-09-04T12:55:55.118Z,35.30
2018-09-04T12:58:23.449Z,35.20
2018-09-04T13:00:53.133Z,34.30
2018-09-04T13:03:23.833Z,34.00
2018-09-04T13:05:52.237Z,33.40
2018-09-04T13:08:21.725Z,33.90
2018-09-04T13:10:50.056Z,34.10
2018-09-04T13:13:18.412Z,34.50
2018-09-04T13:16:01.197Z,34.50
2018-09-04T13:18:30.214Z,34.90
2018-09-04T13:21:02.544Z,35.30
2018-09-04T13:23:31.530Z,35.30
2018-09-04T13:25:59.955Z,35.20
2018-09-04T13:28:28.927Z,35.00
2018-09-04T13:30:57.311Z,35.00
2018-09-04T13:33:27.887Z,35.40
2018-09-04T13:35:56.329Z,35.30
2018-09-04T13:38:24.768Z,35.70
2018-09-04T13:40:57.383Z,36.30
2018-09-04T13:43:25.718Z,36.90
2018-09-04T13:45:54.043Z,36.00
2018-09-04T13:48:29.478Z,36.10
2018-09-04T13:50:58.045Z,36.60
2018-09-04T13:53:26.936Z,36.90
2018-09-04T13:55:55.416Z,37.20
2018-09-04T13:58:23.766Z,37.40
2018-09-04T14:00:52.111Z,37.70
2018-09-04T14:03:20.467Z,38.00
2018-09-04T14:06:19.730Z,37.50
2018-09-04T14:08:48.270Z,37.40
2018-09-04T14:11:16.731Z,37.40
2018-09-04T14:13:45.085Z,37.10
2018-09-04T14:16:16.085Z,36.50
2018-09-04T14:18:44.427Z,36.20
2018-09-04T14:21:13.516Z,36.30
2018-09-04T14:23:41.936Z,36.60
2018-09-04T14:26:10.332Z,36.90
2018-09-04T14:28:41.864Z,37.20
2018-09-04T14:31:07.221Z,37.50
2018-09-04T14:33:35.592Z,37.90
2018-09-04T14:36:04.211Z,37.70
2018-09-04T14:38:32.603Z,37.80
2018-09-04T14:41:00.952Z,38.10
2018-09-04T14:43:29.284Z,37.80
2018-09-04T14:45:57.676Z,37.20
2018-09-04T14:48:26.473Z,36.90
2018-09-04T14:50:55.487Z,36.70
2018-09-04T14:53:23.816Z,36.90
2018-09-04T14:55:52.329Z,37.00
2018-09-04T14:58:20.799Z,36.90
2018-09-04T15:00:49.168Z,36.40
2018-09-04T15:03:18.396Z,35.30
2018-09-04T15:05:46.779Z,34.80
2018-09-04T15:08:15.187Z,34.70
2018-09-04T15:10:43.599Z,35.10
2018-09-04T15:13:11.970Z,35.60
2018-09-04T15:15:40.427Z,36.10
2018-09-04T15:18:08.765Z,36.50
2018-09-04T15:20:37.221Z,36.40
2018-09-04T15:23:06.159Z,36.60
2018-09-04T15:25:34.572Z,36.10
2018-09-04T15:28:03.154Z,34.60
2018-09-04T15:30:32.740Z,34.60
2018-09-04T15:33:02.307Z,34.30
2018-09-04T15:35:30.632Z,34.50
2018-09-04T15:37:59.014Z,34.70
2018-09-04T15:40:27.398Z,34.90
2018-09-04T15:42:55.786Z,35.20
2018-09-04T15:45:24.225Z,35.20
2018-09-04T15:47:52.554Z,35.30
2018-09-04T15:50:20.918Z,34.70
2018-09-04T15:52:49.367Z,34.00
2018-09-04T15:55:17.758Z,33.40
2018-09-04T15:57:46.292Z,33.20
2018-09-04T16:00:14.623Z,33.30
2018-09-04T16:02:43.017Z,33.40
2018-09-04T16:05:11.406Z,33.30
2018-09-04T16:07:39.733Z,33.20
2018-09-04T16:10:08.228Z,33.20
2018-09-04T16:12:36.514Z,33.10
2018-09-04T16:15:04.898Z,32.90
2018-09-04T16:17:33.258Z,32.80
2018-09-04T16:20:01.882Z,32.70
2018-09-04T16:22:30.318Z,32.50
2018-09-04T16:24:58.634Z,32.40
2018-09-04T16:27:26.944Z,32.10
2018-09-04T16:29:55.491Z,31.80
2018-09-04T16:32:23.838Z,31.50
2018-09-04T16:34:52.305Z,31.30
2018-09-04T16:37:20.600Z,31.10
2018-09-04T16:39:49.082Z,30.80
2018-09-04T16:42:17.406Z,30.50
2018-09-04T16:44:46.014Z,30.30
2018-09-04T16:47:14.413Z,30.10
2018-09-04T16:49:42.881Z,29.90
2018-09-04T16:52:11.331Z,29.70
2018-09-04T16:54:39.865Z,29.60
2018-09-04T16:57:10.433Z,29.40
2018-09-04T16:59:38.968Z,29.20
2018-09-04T17:02:07.286Z,28.90
2018-09-04T17:04:35.648Z,28.80
2018-09-04T17:07:04.294Z,28.60
2018-09-04T17:09:32.665Z,28.50
2018-09-04T17:12:01.115Z,28.40
2018-09-04T17:14:29.884Z,28.20
2018-09-04T17:16:58.859Z,28.10
2018-09-04T17:19:27.249Z,27.90
2018-09-04T17:21:55.621Z,27.80
2018-09-04T17:24:23.967Z,27.70
2018-09-04T17:26:52.302Z,27.60
2018-09-04T17:29:20.661Z,27.50
2018-09-04T17:31:49.143Z,27.30
2018-09-04T17:34:17.503Z,27.20
2018-09-04T17:36:45.927Z,27.00
2018-09-04T17:39:14.360Z,26.90
2018-09-04T17:41:42.672Z,26.80
2018-09-04T17:44:11.060Z,26.60
2018-09-04T17:46:40.399Z,26.50
2018-09-04T17:49:09.427Z,26.40
2018-09-04T17:51:38.074Z,26.30
2018-09-04T17:54:06.460Z,26.20
2018-09-04T17:56:34.832Z,26.00
2018-09-04T17:59:03.419Z,25.90
2018-09-04T18:01:34.400Z,25.70
2018-09-04T18:04:04.111Z,25.60
2018-09-04T18:06:32.681Z,25.50
2018-09-04T18:09:01.142Z,25.40
2018-09-04T18:11:29.505Z,25.20
2018-09-04T18:13:57.854Z,25.10
2018-09-04T18:16:26.311Z,25.00
2018-09-04T18:18:55.233Z,24.90
2018-09-04T18:21:23.569Z,24.70
2018-09-04T18:23:51.931Z,24.60
2018-09-04T18:26:20.315Z,24.50
2018-09-04T18:28:48.701Z,24.40
2018-09-04T18:31:17.015Z,24.30
2018-09-04T18:33:45.328Z,24.20
2018-09-04T18:36:13.727Z,24.10
2018-09-04T18:38:42.038Z,24.00
2018-09-04T18:41:10.523Z,24.00
2018-09-04T18:43:39.049Z,23.90
2018-09-04T18:46:07.499Z,23.80
2018-09-04T18:48:37.093Z,23.70
2018-09-04T18:51:05.640Z,23.60
2018-09-04T18:53:34.087Z,23.50
2018-09-04T18:56:02.506Z,23.50
2018-09-04T18:58:30.892Z,23.30
2018-09-04T19:00:59.216Z,23.20
2018-09-04T19:03:28.986Z,23.00
2018-09-04T19:05:57.374Z,22.80
2018-09-04T19:08:26.034Z,22.70
2018-09-04T19:10:54.460Z,22.60
2018-09-04T19:13:22.940Z,22.50
2018-09-04T19:15:51.391Z,22.40
2018-09-04T19:18:19.824Z,22.20
2018-09-04T19:20:48.325Z,22.10
2018-09-04T19:23:17.496Z,22.00
2018-09-04T19:25:45.954Z,21.80
2018-09-04T19:28:14.465Z,21.70
2018-09-04T19:30:43.559Z,21.60
2018-09-04T19:33:12.552Z,21.50
2018-09-04T19:35:41.532Z,21.50
2018-09-04T19:38:13.524Z,21.40
2018-09-04T19:40:42.684Z,21.40
2018-09-04T19:43:11.227Z,21.30
2018-09-04T19:45:39.679Z,21.20
2018-09-04T19:48:08.334Z,21.10
2018-09-04T19:50:37.068Z,21.10
2018-09-04T19:53:05.775Z,21.00
2018-09-04T19:55:34.301Z,21.00
2018-09-04T19:58:03.977Z,20.90
2018-09-04T20:00:33.984Z,20.80
2018-09-04T20:03:03.809Z,20.80
2018-09-04T20:05:33.527Z,20.70
2018-09-04T20:08:03.239Z,20.60
2018-09-04T20:10:34.588Z,20.50
2018-09-04T20:13:04.262Z,20.40
2018-09-04T20:15:34.139Z,20.40
2018-09-04T20:18:03.971Z,20.30
2018-09-04T20:20:33.017Z,20.20
2018-09-04T20:23:01.734Z,20.10
2018-09-04T20:25:31.039Z,20.10
2018-09-04T20:28:01.150Z,20.00
2018-09-04T20:30:29.898Z,20.00
2018-09-04T20:32:58.719Z,19.90
2018-09-04T20:35:27.525Z,19.80
2018-09-04T20:37:56.682Z,19.80
2018-09-04T20:40:25.480Z,19.70
2018-09-04T20:42:54.459Z,19.70
2018-09-04T20:45:23.911Z,19.60
2018-09-04T20:47:53.039Z,19.60
2018-09-04T20:50:30.301Z,19.50
2018-09-04T20:53:00.314Z,19.40
2018-09-04T20:55:29.853Z,19.30
2018-09-04T20:58:10.671Z,19.30
2018-09-04T21:01:01.959Z,19.20
2018-09-04T21:03:45.057Z,19.20
2018-09-04T21:06:24.508Z,19.10
2018-09-04T21:09:00.851Z,19.10
2018-09-04T21:11:29.894Z,19.00
2018-09-04T21:14:02.717Z,19.00
2018-09-04T21:16:31.557Z,18.90
2018-09-04T21:19:20.849Z,18.90
2018-09-04T21:21:49.577Z,18.80
2018-09-04T21:24:17.958Z,18.70
2018-09-04T21:26:46.373Z,18.80
2018-09-04T21:29:14.922Z,18.90
2018-09-04T21:31:43.287Z,18.80
2018-09-04T21:34:11.645Z,18.80
2018-09-04T21:36:40.099Z,18.90
2018-09-04T21:39:09.471Z,19.00
2018-09-04T21:41:39.018Z,18.90
2018-09-04T21:44:07.380Z,18.90
2018-09-04T21:46:36.101Z,18.70
2018-09-04T21:49:04.641Z,18.70
2018-09-04T21:51:33.096Z,18.70
2018-09-04T21:54:01.453Z,18.70
2018-09-04T21:56:29.798Z,18.70
2018-09-04T21:58:59.323Z,18.80
2018-09-04T22:01:27.812Z,18.70
2018-09-04T22:03:56.569Z,18.60
2018-09-04T22:06:24.887Z,18.50
2018-09-04T22:08:53.914Z,18.40
2018-09-04T22:11:22.692Z,18.30
2018-09-04T22:13:51.011Z,18.20
2018-09-04T22:16:20.454Z,18.20
2018-09-04T22:18:48.835Z,18.10
2018-09-04T22:21:17.199Z,18.10
2018-09-04T22:29:04.469Z,17.90
2018-09-04T22:31:33.131Z,17.70
2018-09-04T22:34:01.817Z,17.60
2018-09-04T22:36:30.639Z,17.50
2018-09-04T22:38:59.533Z,17.40
2018-09-04T22:41:27.868Z,17.30
2018-09-04T22:43:57.098Z,17.20
2018-09-04T22:46:25.413Z,17.20
2018-09-04T22:48:53.777Z,17.20
2018-09-04T22:51:27.500Z,17.10
2018-09-04T22:53:56.210Z,17.10
2018-09-04T22:56:24.603Z,17.00
2018-09-04T22:58:52.943Z,17.00
2018-09-04T23:01:21.910Z,17.00
2018-09-04T23:03:51.006Z,16.90
2018-09-04T23:06:20.298Z,16.90
2018-09-04T23:08:48.720Z,16.80
2018-09-04T23:11:17.079Z,16.80
2018-09-04T23:13:45.476Z,16.70
2018-09-04T23:16:14.227Z,16.70
2018-09-04T23:18:42.623Z,16.60
2018-09-04T23:21:10.964Z,16.60
2018-09-04T23:23:39.409Z,16.50
2018-09-04T23:26:07.767Z,16.50
2018-09-04T23:28:36.134Z,16.40
2018-09-04T23:31:04.636Z,16.40
2018-09-04T23:33:34.038Z,16.30
2018-09-04T23:36:02.422Z,16.30
2018-09-04T23:38:30.913Z,16.30
2018-09-04T23:41:00.437Z,16.20
2018-09-04T23:43:28.854Z,16.20
2018-09-04T23:45:57.158Z,16.10
2018-09-04T23:48:26.555Z,16.10
2018-09-04T23:50:54.944Z,16.00
2018-09-04T23:53:23.402Z,16.00
2018-09-04T23:55:51.788Z,15.90
2018-09-04T23:58:20.214Z,15.80
